sensor_id;sensor_type;location;lat;lon;timestamp;temperature;humidity
69895;DHT22;57172;52.034;5.090;2023-08-12T00:00:21;21.10;78.50
69895;DHT22;57172;52.034;5.090;2023-08-12T00:02:49;21.10;78.70
69895;DHT22;57172;52.034;5.090;2023-08-12T00:05:16;21.10;78.80
69895;DHT22;57172;52.034;5.090;2023-08-12T00:07:43;21.10;78.90
69895;DHT22;57172;52.034;5.090;2023-08-12T00:10:11;21.10;79.10
69895;DHT22;57172;52.034;5.090;2023-08-12T00:12:39;21.10;79.10
69895;DHT22;57172;52.034;5.090;2023-08-12T00:15:07;21.10;79.10
69895;DHT22;57172;52.034;5.090;2023-08-12T00:17:35;21.10;79.20
69895;DHT22;57172;52.034;5.090;2023-08-12T00:20:09;21.10;79.30
69895;DHT22;57172;52.034;5.090;2023-08-12T00:22:38;21.10;79.30
69895;DHT22;57172;52.034;5.090;2023-08-12T00:25:06;21.10;79.20
69895;DHT22;57172;52.034;5.090;2023-08-12T00:27:33;21.10;79.20
69895;DHT22;57172;52.034;5.090;2023-08-12T00:30:00;21.10;79.10
69895;DHT22;57172;52.034;5.090;2023-08-12T00:32:28;21.10;79.00
69895;DHT22;57172;52.034;5.090;2023-08-12T00:34:55;21.10;79.10
69895;DHT22;57172;52.034;5.090;2023-08-12T00:37:22;21.10;79.10
69895;DHT22;57172;52.034;5.090;2023-08-12T00:39:49;21.10;79.10
69895;DHT22;57172;52.034;5.090;2023-08-12T00:42:16;21.10;79.20
69895;DHT22;57172;52.034;5.090;2023-08-12T00:44:44;21.10;79.00
69895;DHT22;57172;52.034;5.090;2023-08-12T00:47:11;21.10;78.80
69895;DHT22;57172;52.034;5.090;2023-08-12T00:49:40;21.10;78.70
69895;DHT22;57172;52.034;5.090;2023-08-12T00:52:07;21.20;78.50
69895;DHT22;57172;52.034;5.090;2023-08-12T00:54:34;21.20;78.40
69895;DHT22;57172;52.034;5.090;2023-08-12T00:57:02;21.20;78.40
69895;DHT22;57172;52.034;5.090;2023-08-12T00:59:29;21.10;78.40
69895;DHT22;57172;52.034;5.090;2023-08-12T01:01:56;21.10;78.30
69895;DHT22;57172;52.034;5.090;2023-08-12T01:04:23;21.10;78.30
69895;DHT22;57172;52.034;5.090;2023-08-12T01:06:50;21.10;78.20
69895;DHT22;57172;52.034;5.090;2023-08-12T01:09:17;21.10;78.20
69895;DHT22;57172;52.034;5.090;2023-08-12T01:11:53;21.10;78.20
69895;DHT22;57172;52.034;5.090;2023-08-12T01:17:08;21.10;78.40
69895;DHT22;57172;52.034;5.090;2023-08-12T01:19:40;21.00;78.40
69895;DHT22;57172;52.034;5.090;2023-08-12T01:22:11;21.00;78.50
69895;DHT22;57172;52.034;5.090;2023-08-12T01:24:42;21.00;78.50
69895;DHT22;57172;52.034;5.090;2023-08-12T01:27:11;21.00;78.70
69895;DHT22;57172;52.034;5.090;2023-08-12T01:29:45;21.00;78.70
69895;DHT22;57172;52.034;5.090;2023-08-12T01:37:29;21.00;79.20
69895;DHT22;57172;52.034;5.090;2023-08-12T01:40:00;20.90;79.50
69895;DHT22;57172;52.034;5.090;2023-08-12T01:42:28;20.90;79.60
69895;DHT22;57172;52.034;5.090;2023-08-12T01:44:56;20.90;79.70
69895;DHT22;57172;52.034;5.090;2023-08-12T01:47:24;20.90;79.70
69895;DHT22;57172;52.034;5.090;2023-08-12T01:49:52;20.90;79.70
69895;DHT22;57172;52.034;5.090;2023-08-12T01:52:19;20.90;79.70
69895;DHT22;57172;52.034;5.090;2023-08-12T01:54:46;20.90;80.00
69895;DHT22;57172;52.034;5.090;2023-08-12T01:57:13;21.00;80.10
69895;DHT22;57172;52.034;5.090;2023-08-12T01:59:41;20.90;80.10
69895;DHT22;57172;52.034;5.090;2023-08-12T02:02:10;20.90;80.30
69895;DHT22;57172;52.034;5.090;2023-08-12T02:04:39;20.90;80.20
69895;DHT22;57172;52.034;5.090;2023-08-12T02:07:06;20.90;80.40
69895;DHT22;57172;52.034;5.090;2023-08-12T02:09:33;20.90;80.40
69895;DHT22;57172;52.034;5.090;2023-08-12T02:12:00;21.00;80.40
69895;DHT22;57172;52.034;5.090;2023-08-12T02:14:27;21.00;80.30
69895;DHT22;57172;52.034;5.090;2023-08-12T02:16:54;21.10;80.30
69895;DHT22;57172;52.034;5.090;2023-08-12T02:19:21;21.10;80.20
69895;DHT22;57172;52.034;5.090;2023-08-12T02:21:48;21.10;80.30
69895;DHT22;57172;52.034;5.090;2023-08-12T02:24:15;21.10;80.40
69895;DHT22;57172;52.034;5.090;2023-08-12T02:26:42;21.10;80.30
69895;DHT22;57172;52.034;5.090;2023-08-12T02:29:08;21.10;80.40
69895;DHT22;57172;52.034;5.090;2023-08-12T02:31:35;21.10;80.40
69895;DHT22;57172;52.034;5.090;2023-08-12T02:34:03;21.10;80.50
69895;DHT22;57172;52.034;5.090;2023-08-12T02:36:30;21.10;80.60
69895;DHT22;57172;52.034;5.090;2023-08-12T02:38:57;21.10;80.60
69895;DHT22;57172;52.034;5.090;2023-08-12T02:41:24;21.10;80.70
69895;DHT22;57172;52.034;5.090;2023-08-12T02:43:51;21.10;80.60
69895;DHT22;57172;52.034;5.090;2023-08-12T02:46:18;21.20;80.60
69895;DHT22;57172;52.034;5.090;2023-08-12T02:48:45;21.20;80.60
69895;DHT22;57172;52.034;5.090;2023-08-12T02:51:14;21.20;80.60
69895;DHT22;57172;52.034;5.090;2023-08-12T02:53:41;21.20;80.60
69895;DHT22;57172;52.034;5.090;2023-08-12T02:56:08;21.10;80.80
69895;DHT22;57172;52.034;5.090;2023-08-12T02:58:35;21.10;80.90
69895;DHT22;57172;52.034;5.090;2023-08-12T03:01:02;21.20;80.90
69895;DHT22;57172;52.034;5.090;2023-08-12T03:03:31;21.20;81.00
69895;DHT22;57172;52.034;5.090;2023-08-12T03:05:58;21.20;80.90
69895;DHT22;57172;52.034;5.090;2023-08-12T03:08:25;21.20;81.00
69895;DHT22;57172;52.034;5.090;2023-08-12T03:11:02;21.20;81.00
69895;DHT22;57172;52.034;5.090;2023-08-12T03:13:30;21.30;81.20
69895;DHT22;57172;52.034;5.090;2023-08-12T03:15:58;21.30;81.20
69895;DHT22;57172;52.034;5.090;2023-08-12T03:18:25;21.30;81.20
69895;DHT22;57172;52.034;5.090;2023-08-12T03:20:52;21.20;81.70
69895;DHT22;57172;52.034;5.090;2023-08-12T03:23:22;21.20;81.60
69895;DHT22;57172;52.034;5.090;2023-08-12T03:25:49;21.20;81.80
69895;DHT22;57172;52.034;5.090;2023-08-12T03:28:16;21.20;82.10
69895;DHT22;57172;52.034;5.090;2023-08-12T03:30:50;21.20;82.30
69895;DHT22;57172;52.034;5.090;2023-08-12T03:33:21;21.20;82.40
69895;DHT22;57172;52.034;5.090;2023-08-12T03:35:48;21.20;82.30
69895;DHT22;57172;52.034;5.090;2023-08-12T03:38:16;21.20;82.20
69895;DHT22;57172;52.034;5.090;2023-08-12T03:40:45;21.30;82.00
69895;DHT22;57172;52.034;5.090;2023-08-12T03:43:15;21.30;81.90
69895;DHT22;57172;52.034;5.090;2023-08-12T03:45:44;21.30;81.90
69895;DHT22;57172;52.034;5.090;2023-08-12T03:48:13;21.30;81.90
69895;DHT22;57172;52.034;5.090;2023-08-12T03:50:41;21.30;81.80
69895;DHT22;57172;52.034;5.090;2023-08-12T03:53:09;21.30;81.90
69895;DHT22;57172;52.034;5.090;2023-08-12T03:55:37;21.30;81.90
69895;DHT22;57172;52.034;5.090;2023-08-12T03:58:05;21.30;82.00
69895;DHT22;57172;52.034;5.090;2023-08-12T04:00:33;21.30;82.20
69895;DHT22;57172;52.034;5.090;2023-08-12T04:03:02;21.20;82.60
69895;DHT22;57172;52.034;5.090;2023-08-12T04:05:29;21.10;82.80
69895;DHT22;57172;52.034;5.090;2023-08-12T04:07:56;21.20;82.80
69895;DHT22;57172;52.034;5.090;2023-08-12T04:10:23;21.20;83.00
69895;DHT22;57172;52.034;5.090;2023-08-12T04:12:50;21.20;83.00
69895;DHT22;57172;52.034;5.090;2023-08-12T04:15:17;21.20;83.10
69895;DHT22;57172;52.034;5.090;2023-08-12T04:17:44;21.20;83.20
69895;DHT22;57172;52.034;5.090;2023-08-12T04:20:11;21.20;83.50
69895;DHT22;57172;52.034;5.090;2023-08-12T04:22:38;21.10;83.70
69895;DHT22;57172;52.034;5.090;2023-08-12T04:25:05;21.10;83.70
69895;DHT22;57172;52.034;5.090;2023-08-12T04:27:34;21.20;83.70
69895;DHT22;57172;52.034;5.090;2023-08-12T04:30:01;21.20;83.80
69895;DHT22;57172;52.034;5.090;2023-08-12T04:32:29;21.10;83.80
69895;DHT22;57172;52.034;5.090;2023-08-12T04:34:56;21.10;83.70
69895;DHT22;57172;52.034;5.090;2023-08-12T04:37:24;21.20;83.90
69895;DHT22;57172;52.034;5.090;2023-08-12T04:39:53;21.20;83.90
69895;DHT22;57172;52.034;5.090;2023-08-12T04:42:20;21.20;84.00
69895;DHT22;57172;52.034;5.090;2023-08-12T04:44:48;21.20;84.00
69895;DHT22;57172;52.034;5.090;2023-08-12T04:47:15;21.20;84.00
69895;DHT22;57172;52.034;5.090;2023-08-12T04:49:42;21.20;84.00
69895;DHT22;57172;52.034;5.090;2023-08-12T04:52:09;21.20;84.10
69895;DHT22;57172;52.034;5.090;2023-08-12T04:54:36;21.20;84.10
69895;DHT22;57172;52.034;5.090;2023-08-12T04:57:03;21.20;84.00
69895;DHT22;57172;52.034;5.090;2023-08-12T04:59:30;21.20;84.00
69895;DHT22;57172;52.034;5.090;2023-08-12T05:01:57;21.20;83.90
69895;DHT22;57172;52.034;5.090;2023-08-12T05:04:32;21.20;83.90
69895;DHT22;57172;52.034;5.090;2023-08-12T05:06:59;21.20;84.10
69895;DHT22;57172;52.034;5.090;2023-08-12T05:09:26;21.30;84.10
69895;DHT22;57172;52.034;5.090;2023-08-12T05:11:53;21.30;84.00
69895;DHT22;57172;52.034;5.090;2023-08-12T05:14:20;21.30;84.00
69895;DHT22;57172;52.034;5.090;2023-08-12T05:16:48;21.30;84.10
69895;DHT22;57172;52.034;5.090;2023-08-12T05:19:15;21.20;84.10
69895;DHT22;57172;52.034;5.090;2023-08-12T05:21:42;21.20;84.20
69895;DHT22;57172;52.034;5.090;2023-08-12T05:24:09;21.20;84.30
69895;DHT22;57172;52.034;5.090;2023-08-12T05:26:38;21.20;84.30
69895;DHT22;57172;52.034;5.090;2023-08-12T05:29:05;21.30;84.30
69895;DHT22;57172;52.034;5.090;2023-08-12T05:31:32;21.20;84.40
69895;DHT22;57172;52.034;5.090;2023-08-12T05:33:59;21.20;84.50
69895;DHT22;57172;52.034;5.090;2023-08-12T05:36:26;21.10;84.70
69895;DHT22;57172;52.034;5.090;2023-08-12T05:38:53;21.10;84.40
69895;DHT22;57172;52.034;5.090;2023-08-12T05:41:20;21.00;84.80
69895;DHT22;57172;52.034;5.090;2023-08-12T05:43:48;20.90;85.30
69895;DHT22;57172;52.034;5.090;2023-08-12T05:46:15;20.90;85.80
69895;DHT22;57172;52.034;5.090;2023-08-12T05:48:42;20.80;86.50
69895;DHT22;57172;52.034;5.090;2023-08-12T05:51:09;20.60;87.30
69895;DHT22;57172;52.034;5.090;2023-08-12T05:53:37;20.50;87.90
69895;DHT22;57172;52.034;5.090;2023-08-12T05:56:04;20.40;88.60
69895;DHT22;57172;52.034;5.090;2023-08-12T05:58:31;20.30;89.10
69895;DHT22;57172;52.034;5.090;2023-08-12T06:00:59;20.30;89.60
69895;DHT22;57172;52.034;5.090;2023-08-12T06:03:26;20.30;90.00
69895;DHT22;57172;52.034;5.090;2023-08-12T06:05:53;20.30;90.20
69895;DHT22;57172;52.034;5.090;2023-08-12T06:08:20;20.30;90.50
69895;DHT22;57172;52.034;5.090;2023-08-12T06:10:47;20.30;90.80
69895;DHT22;57172;52.034;5.090;2023-08-12T06:13:14;20.20;91.10
69895;DHT22;57172;52.034;5.090;2023-08-12T06:15:41;20.20;91.40
69895;DHT22;57172;52.034;5.090;2023-08-12T06:18:08;20.10;91.70
69895;DHT22;57172;52.034;5.090;2023-08-12T06:20:35;20.10;91.90
69895;DHT22;57172;52.034;5.090;2023-08-12T06:23:02;20.10;92.30
69895;DHT22;57172;52.034;5.090;2023-08-12T06:25:29;20.00;92.40
69895;DHT22;57172;52.034;5.090;2023-08-12T06:27:56;20.00;92.50
69895;DHT22;57172;52.034;5.090;2023-08-12T06:30:25;19.90;92.90
69895;DHT22;57172;52.034;5.090;2023-08-12T06:32:53;19.90;93.20
69895;DHT22;57172;52.034;5.090;2023-08-12T06:35:20;19.90;93.60
69895;DHT22;57172;52.034;5.090;2023-08-12T06:37:47;19.90;93.60
69895;DHT22;57172;52.034;5.090;2023-08-12T06:40:14;19.80;93.80
69895;DHT22;57172;52.034;5.090;2023-08-12T06:42:41;19.80;94.00
69895;DHT22;57172;52.034;5.090;2023-08-12T06:45:09;19.80;94.30
69895;DHT22;57172;52.034;5.090;2023-08-12T06:47:36;19.80;94.50
69895;DHT22;57172;52.034;5.090;2023-08-12T06:50:03;19.80;94.80
69895;DHT22;57172;52.034;5.090;2023-08-12T06:52:30;19.80;94.90
69895;DHT22;57172;52.034;5.090;2023-08-12T06:54:57;19.80;95.10
69895;DHT22;57172;52.034;5.090;2023-08-12T06:57:24;19.90;95.30
69895;DHT22;57172;52.034;5.090;2023-08-12T06:59:51;19.90;95.60
69895;DHT22;57172;52.034;5.090;2023-08-12T07:02:18;20.00;95.80
69895;DHT22;57172;52.034;5.090;2023-08-12T07:04:45;20.00;95.80
69895;DHT22;57172;52.034;5.090;2023-08-12T07:07:12;20.00;95.90
69895;DHT22;57172;52.034;5.090;2023-08-12T07:09:39;20.00;96.00
69895;DHT22;57172;52.034;5.090;2023-08-12T07:12:06;20.10;95.60
69895;DHT22;57172;52.034;5.090;2023-08-12T07:14:33;20.10;95.60
69895;DHT22;57172;52.034;5.090;2023-08-12T07:17:00;20.10;95.80
69895;DHT22;57172;52.034;5.090;2023-08-12T07:19:27;20.20;96.00
69895;DHT22;57172;52.034;5.090;2023-08-12T07:21:54;20.20;96.10
69895;DHT22;57172;52.034;5.090;2023-08-12T07:24:21;20.20;96.20
69895;DHT22;57172;52.034;5.090;2023-08-12T07:26:48;20.20;96.10
69895;DHT22;57172;52.034;5.090;2023-08-12T07:29:15;20.20;95.90
69895;DHT22;57172;52.034;5.090;2023-08-12T07:31:42;20.20;96.00
69895;DHT22;57172;52.034;5.090;2023-08-12T07:34:10;20.20;96.20
69895;DHT22;57172;52.034;5.090;2023-08-12T07:36:40;20.20;96.40
69895;DHT22;57172;52.034;5.090;2023-08-12T07:39:07;20.20;96.60
69895;DHT22;57172;52.034;5.090;2023-08-12T07:41:34;20.20;96.70
69895;DHT22;57172;52.034;5.090;2023-08-12T07:44:01;20.20;96.70
69895;DHT22;57172;52.034;5.090;2023-08-12T07:46:28;20.20;96.40
69895;DHT22;57172;52.034;5.090;2023-08-12T07:48:56;20.20;96.60
69895;DHT22;57172;52.034;5.090;2023-08-12T07:51:24;20.20;97.00
69895;DHT22;57172;52.034;5.090;2023-08-12T07:53:50;20.20;97.10
69895;DHT22;57172;52.034;5.090;2023-08-12T07:56:17;20.20;97.30
69895;DHT22;57172;52.034;5.090;2023-08-12T07:58:44;20.20;97.90
69895;DHT22;57172;52.034;5.090;2023-08-12T08:01:12;20.30;98.00
69895;DHT22;57172;52.034;5.090;2023-08-12T08:03:40;20.30;98.00
69895;DHT22;57172;52.034;5.090;2023-08-12T08:06:07;20.30;97.60
69895;DHT22;57172;52.034;5.090;2023-08-12T08:08:35;20.30;97.40
69895;DHT22;57172;52.034;5.090;2023-08-12T08:11:02;20.30;97.20
69895;DHT22;57172;52.034;5.090;2023-08-12T08:13:29;20.20;97.20
69895;DHT22;57172;52.034;5.090;2023-08-12T08:15:56;20.20;97.70
69895;DHT22;57172;52.034;5.090;2023-08-12T08:18:23;20.30;97.50
69895;DHT22;57172;52.034;5.090;2023-08-12T08:20:50;20.30;97.30
69895;DHT22;57172;52.034;5.090;2023-08-12T08:23:17;20.30;97.30
69895;DHT22;57172;52.034;5.090;2023-08-12T08:25:44;20.30;97.50
69895;DHT22;57172;52.034;5.090;2023-08-12T08:28:11;20.30;97.50
69895;DHT22;57172;52.034;5.090;2023-08-12T08:30:38;20.20;95.90
69895;DHT22;57172;52.034;5.090;2023-08-12T08:33:05;19.90;94.00
69895;DHT22;57172;52.034;5.090;2023-08-12T08:35:32;19.70;93.50
69895;DHT22;57172;52.034;5.090;2023-08-12T08:37:59;19.30;92.70
69895;DHT22;57172;52.034;5.090;2023-08-12T08:40:27;19.10;94.10
69895;DHT22;57172;52.034;5.090;2023-08-12T08:42:55;19.00;95.30
69895;DHT22;57172;52.034;5.090;2023-08-12T08:45:27;18.80;95.60
69895;DHT22;57172;52.034;5.090;2023-08-12T08:47:55;18.80;96.40
69895;DHT22;57172;52.034;5.090;2023-08-12T08:50:23;18.80;97.20
69895;DHT22;57172;52.034;5.090;2023-08-12T08:52:51;18.80;96.40
69895;DHT22;57172;52.034;5.090;2023-08-12T08:55:19;18.80;97.40
69895;DHT22;57172;52.034;5.090;2023-08-12T08:57:49;18.80;98.00
69895;DHT22;57172;52.034;5.090;2023-08-12T09:00:17;18.90;98.40
69895;DHT22;57172;52.034;5.090;2023-08-12T09:02:46;19.00;99.10
69895;DHT22;57172;52.034;5.090;2023-08-12T09:05:15;19.10;99.30
69895;DHT22;57172;52.034;5.090;2023-08-12T09:07:43;19.20;98.70
69895;DHT22;57172;52.034;5.090;2023-08-12T09:10:11;19.20;98.70
69895;DHT22;57172;52.034;5.090;2023-08-12T09:12:42;19.30;99.20
69895;DHT22;57172;52.034;5.090;2023-08-12T09:15:09;19.50;99.90
69895;DHT22;57172;52.034;5.090;2023-08-12T09:17:37;19.70;99.90
69895;DHT22;57172;52.034;5.090;2023-08-12T09:20:05;19.90;99.90
69895;DHT22;57172;52.034;5.090;2023-08-12T09:22:40;20.00;98.10
69895;DHT22;57172;52.034;5.090;2023-08-12T09:25:09;20.10;99.00
69895;DHT22;57172;52.034;5.090;2023-08-12T09:27:36;20.30;99.90
69895;DHT22;57172;52.034;5.090;2023-08-12T09:30:05;20.50;98.90
69895;DHT22;57172;52.034;5.090;2023-08-12T09:32:33;20.60;98.40
69895;DHT22;57172;52.034;5.090;2023-08-12T09:35:05;20.60;98.40
69895;DHT22;57172;52.034;5.090;2023-08-12T09:37:33;20.80;99.00
69895;DHT22;57172;52.034;5.090;2023-08-12T09:40:00;20.90;98.20
69895;DHT22;57172;52.034;5.090;2023-08-12T09:42:28;21.10;97.60
69895;DHT22;57172;52.034;5.090;2023-08-12T09:44:56;21.20;96.70
69895;DHT22;57172;52.034;5.090;2023-08-12T09:47:25;21.30;96.40
69895;DHT22;57172;52.034;5.090;2023-08-12T09:49:52;21.40;96.60
69895;DHT22;57172;52.034;5.090;2023-08-12T09:52:19;21.60;96.50
69895;DHT22;57172;52.034;5.090;2023-08-12T09:54:46;21.70;97.10
69895;DHT22;57172;52.034;5.090;2023-08-12T09:57:14;21.80;96.00
69895;DHT22;57172;52.034;5.090;2023-08-12T09:59:42;22.10;99.90
69895;DHT22;57172;52.034;5.090;2023-08-12T10:02:15;22.90;99.90
69895;DHT22;57172;52.034;5.090;2023-08-12T10:04:46;23.90;99.90
69895;DHT22;57172;52.034;5.090;2023-08-12T10:07:15;24.70;99.90
69895;DHT22;57172;52.034;5.090;2023-08-12T10:09:43;25.70;99.90
69895;DHT22;57172;52.034;5.090;2023-08-12T10:12:11;26.40;99.90
69895;DHT22;57172;52.034;5.090;2023-08-12T10:14:43;27.00;96.50
69895;DHT22;57172;52.034;5.090;2023-08-12T10:17:10;27.30;94.60
69895;DHT22;57172;52.034;5.090;2023-08-12T10:19:43;27.40;89.80
69895;DHT22;57172;52.034;5.090;2023-08-12T10:22:11;27.80;90.30
69895;DHT22;57172;52.034;5.090;2023-08-12T10:24:39;28.30;92.80
69895;DHT22;57172;52.034;5.090;2023-08-12T10:27:08;28.60;89.20
69895;DHT22;57172;52.034;5.090;2023-08-12T10:29:38;28.60;83.30
69895;DHT22;57172;52.034;5.090;2023-08-12T10:32:05;28.20;83.30
69895;DHT22;57172;52.034;5.090;2023-08-12T10:34:32;28.10;85.20
69895;DHT22;57172;52.034;5.090;2023-08-12T10:37:01;28.30;87.20
69895;DHT22;57172;52.034;5.090;2023-08-12T10:39:33;28.70;87.60
69895;DHT22;57172;52.034;5.090;2023-08-12T10:42:01;28.90;87.70
69895;DHT22;57172;52.034;5.090;2023-08-12T10:44:51;29.30;86.00
69895;DHT22;57172;52.034;5.090;2023-08-12T10:47:18;29.70;85.00
69895;DHT22;57172;52.034;5.090;2023-08-12T10:49:49;30.30;86.60
69895;DHT22;57172;52.034;5.090;2023-08-12T10:52:27;31.00;83.10
69895;DHT22;57172;52.034;5.090;2023-08-12T10:55:15;31.00;76.60
69895;DHT22;57172;52.034;5.090;2023-08-12T10:57:42;30.90;78.10
69895;DHT22;57172;52.034;5.090;2023-08-12T11:00:17;30.70;76.60
69895;DHT22;57172;52.034;5.090;2023-08-12T11:02:45;30.40;72.50
69895;DHT22;57172;52.034;5.090;2023-08-12T11:05:13;30.20;77.30
69895;DHT22;57172;52.034;5.090;2023-08-12T11:10:16;30.50;79.00
69895;DHT22;57172;52.034;5.090;2023-08-12T11:13:02;30.90;72.10
69895;DHT22;57172;52.034;5.090;2023-08-12T11:15:37;31.20;75.10
69895;DHT22;57172;52.034;5.090;2023-08-12T11:18:09;31.80;70.80
69895;DHT22;57172;52.034;5.090;2023-08-12T11:20:37;32.40;70.50
69895;DHT22;57172;52.034;5.090;2023-08-12T11:23:05;32.80;69.30
69895;DHT22;57172;52.034;5.090;2023-08-12T11:25:33;32.90;67.50
69895;DHT22;57172;52.034;5.090;2023-08-12T11:28:01;33.20;66.80
69895;DHT22;57172;52.034;5.090;2023-08-12T11:30:28;33.60;67.00
69895;DHT22;57172;52.034;5.090;2023-08-12T11:32:59;34.10;65.00
69895;DHT22;57172;52.034;5.090;2023-08-12T11:35:27;34.30;63.40
69895;DHT22;57172;52.034;5.090;2023-08-12T11:37:56;34.20;63.20
69895;DHT22;57172;52.034;5.090;2023-08-12T11:40:26;34.30;60.50
69895;DHT22;57172;52.034;5.090;2023-08-12T11:42:54;33.70;58.80
69895;DHT22;57172;52.034;5.090;2023-08-12T11:45:24;33.10;61.60
69895;DHT22;57172;52.034;5.090;2023-08-12T11:47:51;33.10;62.20
69895;DHT22;57172;52.034;5.090;2023-08-12T11:50:26;33.40;62.90
69895;DHT22;57172;52.034;5.090;2023-08-12T11:52:57;33.40;60.00
69895;DHT22;57172;52.034;5.090;2023-08-12T11:55:25;33.00;59.10
69895;DHT22;57172;52.034;5.090;2023-08-12T11:57:52;32.50;61.00
69895;DHT22;57172;52.034;5.090;2023-08-12T12:00:20;32.50;63.20
69895;DHT22;57172;52.034;5.090;2023-08-12T12:02:52;32.80;63.60
69895;DHT22;57172;52.034;5.090;2023-08-12T12:05:27;32.50;58.90
69895;DHT22;57172;52.034;5.090;2023-08-12T12:07:55;32.30;60.80
69895;DHT22;57172;52.034;5.090;2023-08-12T12:10:32;32.30;63.10
69895;DHT22;57172;52.034;5.090;2023-08-12T12:13:03;32.50;59.10
69895;DHT22;57172;52.034;5.090;2023-08-12T12:15:43;32.60;59.70
69895;DHT22;57172;52.034;5.090;2023-08-12T12:18:12;32.40;59.90
69895;DHT22;57172;52.034;5.090;2023-08-12T12:20:54;32.20;63.10
69895;DHT22;57172;52.034;5.090;2023-08-12T12:23:21;32.10;61.30
69895;DHT22;57172;52.034;5.090;2023-08-12T12:25:48;31.80;63.00
69895;DHT22;57172;52.034;5.090;2023-08-12T12:28:15;32.10;64.70
69895;DHT22;57172;52.034;5.090;2023-08-12T12:30:43;32.40;64.10
69895;DHT22;57172;52.034;5.090;2023-08-12T12:33:09;32.70;61.70
69895;DHT22;57172;52.034;5.090;2023-08-12T12:35:36;32.70;60.40
69895;DHT22;57172;52.034;5.090;2023-08-12T12:38:22;32.80;59.90
69895;DHT22;57172;52.034;5.090;2023-08-12T12:40:49;32.80;58.00
69895;DHT22;57172;52.034;5.090;2023-08-12T12:43:16;32.60;59.60
69895;DHT22;57172;52.034;5.090;2023-08-12T12:45:44;32.70;58.40
69895;DHT22;57172;52.034;5.090;2023-08-12T12:48:11;32.40;58.70
69895;DHT22;57172;52.034;5.090;2023-08-12T12:50:38;32.30;58.50
69895;DHT22;57172;52.034;5.090;2023-08-12T12:53:05;32.20;60.20
69895;DHT22;57172;52.034;5.090;2023-08-12T12:55:31;32.30;62.80
69895;DHT22;57172;52.034;5.090;2023-08-12T12:57:58;32.90;59.10
69895;DHT22;57172;52.034;5.090;2023-08-12T13:00:25;33.10;59.10
69895;DHT22;57172;52.034;5.090;2023-08-12T13:02:52;33.20;57.50
69895;DHT22;57172;52.034;5.090;2023-08-12T13:05:20;33.10;59.30
69895;DHT22;57172;52.034;5.090;2023-08-12T13:07:47;33.00;59.50
69895;DHT22;57172;52.034;5.090;2023-08-12T13:10:14;32.80;59.10
69895;DHT22;57172;52.034;5.090;2023-08-12T13:12:41;32.90;60.60
69895;DHT22;57172;52.034;5.090;2023-08-12T13:15:08;32.90;61.50
69895;DHT22;57172;52.034;5.090;2023-08-12T13:17:35;33.20;61.60
69895;DHT22;57172;52.034;5.090;2023-08-12T13:20:02;33.20;58.00
69895;DHT22;57172;52.034;5.090;2023-08-12T13:22:29;32.30;55.50
69895;DHT22;57172;52.034;5.090;2023-08-12T13:24:56;31.60;58.60
69895;DHT22;57172;52.034;5.090;2023-08-12T13:27:23;31.50;61.50
69895;DHT22;57172;52.034;5.090;2023-08-12T13:29:50;31.50;57.70
69895;DHT22;57172;52.034;5.090;2023-08-12T13:32:17;31.10;59.50
69895;DHT22;57172;52.034;5.090;2023-08-12T13:34:44;30.90;55.40
69895;DHT22;57172;52.034;5.090;2023-08-12T13:37:13;30.30;54.70
69895;DHT22;57172;52.034;5.090;2023-08-12T13:39:41;29.70;57.60
69895;DHT22;57172;52.034;5.090;2023-08-12T13:42:08;29.20;57.90
69895;DHT22;57172;52.034;5.090;2023-08-12T13:44:35;28.80;59.00
69895;DHT22;57172;52.034;5.090;2023-08-12T13:47:02;28.40;60.70
69895;DHT22;57172;52.034;5.090;2023-08-12T13:49:29;28.20;61.70
69895;DHT22;57172;52.034;5.090;2023-08-12T13:51:56;28.10;65.40
69895;DHT22;57172;52.034;5.090;2023-08-12T13:54:23;28.50;65.30
69895;DHT22;57172;52.034;5.090;2023-08-12T13:56:50;28.80;67.00
69895;DHT22;57172;52.034;5.090;2023-08-12T13:59:17;29.10;66.80
69895;DHT22;57172;52.034;5.090;2023-08-12T14:01:44;29.60;68.60
69895;DHT22;57172;52.034;5.090;2023-08-12T14:04:12;30.20;67.40
69895;DHT22;57172;52.034;5.090;2023-08-12T14:06:38;30.70;65.30
69895;DHT22;57172;52.034;5.090;2023-08-12T14:09:07;30.80;59.70
69895;DHT22;57172;52.034;5.090;2023-08-12T14:11:34;30.60;61.20
69895;DHT22;57172;52.034;5.090;2023-08-12T14:14:01;30.60;59.40
69895;DHT22;57172;52.034;5.090;2023-08-12T14:16:28;30.40;59.40
69895;DHT22;57172;52.034;5.090;2023-08-12T14:18:55;30.30;59.00
69895;DHT22;57172;52.034;5.090;2023-08-12T14:21:22;30.10;56.90
69895;DHT22;57172;52.034;5.090;2023-08-12T14:23:49;29.80;54.90
69895;DHT22;57172;52.034;5.090;2023-08-12T14:26:16;29.60;58.10
69895;DHT22;57172;52.034;5.090;2023-08-12T14:28:43;29.70;60.90
69895;DHT22;57172;52.034;5.090;2023-08-12T14:31:10;29.70;59.40
69895;DHT22;57172;52.034;5.090;2023-08-12T14:33:37;29.20;58.10
69895;DHT22;57172;52.034;5.090;2023-08-12T14:36:04;28.80;61.10
69895;DHT22;57172;52.034;5.090;2023-08-12T14:38:31;28.90;63.30
69895;DHT22;57172;52.034;5.090;2023-08-12T14:40:59;28.90;62.60
69895;DHT22;57172;52.034;5.090;2023-08-12T14:43:26;29.00;62.20
69895;DHT22;57172;52.034;5.090;2023-08-12T14:45:53;28.90;61.20
69895;DHT22;57172;52.034;5.090;2023-08-12T14:48:20;28.80;61.00
69895;DHT22;57172;52.034;5.090;2023-08-12T14:50:47;28.70;62.50
69895;DHT22;57172;52.034;5.090;2023-08-12T14:53:14;28.70;62.00
69895;DHT22;57172;52.034;5.090;2023-08-12T14:55:41;28.80;63.00
69895;DHT22;57172;52.034;5.090;2023-08-12T14:58:08;28.60;59.30
69895;DHT22;57172;52.034;5.090;2023-08-12T15:00:35;28.20;60.90
69895;DHT22;57172;52.034;5.090;2023-08-12T15:03:02;27.90;59.40
69895;DHT22;57172;52.034;5.090;2023-08-12T15:05:30;27.70;62.80
69895;DHT22;57172;52.034;5.090;2023-08-12T15:07:57;27.70;62.50
69895;DHT22;57172;52.034;5.090;2023-08-12T15:10:24;27.60;61.70
69895;DHT22;57172;52.034;5.090;2023-08-12T15:12:51;27.40;61.00
69895;DHT22;57172;52.034;5.090;2023-08-12T15:15:19;27.10;62.50
69895;DHT22;57172;52.034;5.090;2023-08-12T15:17:46;26.90;64.20
69895;DHT22;57172;52.034;5.090;2023-08-12T15:20:13;27.00;67.90
69895;DHT22;57172;52.034;5.090;2023-08-12T15:22:40;27.30;65.70
69895;DHT22;57172;52.034;5.090;2023-08-12T15:25:07;27.60;65.60
69895;DHT22;57172;52.034;5.090;2023-08-12T15:27:35;27.70;65.40
69895;DHT22;57172;52.034;5.090;2023-08-12T15:30:02;27.80;65.30
69895;DHT22;57172;52.034;5.090;2023-08-12T15:32:29;27.80;63.30
69895;DHT22;57172;52.034;5.090;2023-08-12T15:34:57;28.00;63.60
69895;DHT22;57172;52.034;5.090;2023-08-12T15:37:24;28.20;62.90
69895;DHT22;57172;52.034;5.090;2023-08-12T15:39:51;28.20;61.30
69895;DHT22;57172;52.034;5.090;2023-08-12T15:42:18;28.30;60.60
69895;DHT22;57172;52.034;5.090;2023-08-12T15:44:45;28.40;61.10